Perry, South Carolina
Current Conditions -  °F | °C
As of 2:35 PM on Friday 24 Oct 2014 (Local Time) from KAIK Reporting Station
Clear Clear  
Wind Chill: 72°   Ceiling: Unl
Heat Index: 72°   Visibility: 10mi
Dew Point: 46°   Wind: 0mph
Humidity: 41%   Direction: NA
Pressure: 30.05"   Gusts: NA
Location:  33.63°N, 81.31°W
Report Text: KAIK 241835Z AUTO 00000KT 10SM CLR 22/08 A3005 RMK AO2 PNO
Loading
Personal Weather Stations






























Interactive Weather Map
Tropical Storm Tracking
New forecast layout! Learn more

10-Day Weather Forecast

Advertisements
Track Severe Weather on mobile